Time;durP1;ratioP1;P1;durP2;ratioP2;P2;SDS_P1;SDS_P2;PMS_P1;PMS_P2;Temp;Humidity;BMP_temperature;BMP_pressure;BME280_temperature;BME280_humidity;BME280_pressure;Samples;Min_cycle;Max_cycle;Signal;HPM_P1;HPM_P2
2023/01/15 00:00:46;;;;;;;11.93;2.20;;;5.90;75.30;;;;;;4131043;28;20038;-87
2023/01/15 00:03:06;;;;;;;10.05;1.83;;;5.80;75.30;;;;;;4152417;28;20037;-87
2023/01/15 00:05:27;;;;;;;13.15;1.90;;;5.80;75.40;;;;;;4149806;28;20072;-87
2023/01/15 00:07:48;;;;;;;18.38;1.88;;;5.90;75.50;;;;;;4149496;28;20095;-87
2023/01/15 00:10:10;;;;;;;12.23;2.05;;;5.80;75.70;;;;;;4132477;28;20121;-88
2023/01/15 00:12:30;;;;;;;10.38;1.52;;;5.80;75.60;;;;;;4149469;28;20040;-87
2023/01/15 00:14:51;;;;;;;15.00;1.38;;;5.80;75.70;;;;;;4146067;28;20026;-87
2023/01/15 00:17:12;;;;;;;13.32;1.95;;;5.80;75.70;;;;;;4146664;28;20036;-86
2023/01/15 00:19:32;;;;;;;20.98;2.28;;;5.80;75.70;;;;;;4149016;28;20050;-87
2023/01/15 00:21:53;;;;;;;16.15;2.08;;;5.80;75.80;;;;;;4151124;28;20057;-88
2023/01/15 00:29:12;;;;;;;17.42;2.10;;;5.80;75.90;;;;;;4130467;28;20560;-88
2023/01/15 00:31:13;;;;;;;13.98;2.00;;;5.80;75.80;;;;;;4115993;28;20026;-87
2023/01/15 00:33:14;;;;;;;21.10;2.60;;;5.80;75.90;;;;;;4149851;28;20034;-87
2023/01/15 00:35:16;;;;;;;22.65;2.65;;;5.80;75.90;;;;;;4119088;28;21192;-88
2023/01/15 00:37:17;;;;;;;16.48;2.50;;;5.80;75.90;;;;;;4115286;28;20031;-87
2023/01/15 00:39:18;;;;;;;23.92;3.15;;;5.80;76.00;;;;;;4126277;28;20050;-87
2023/01/15 00:41:19;;;;;;;24.75;2.40;;;5.80;76.90;;;;;;4147999;28;20432;-88
2023/01/15 00:43:19;;;;;;;18.88;2.63;;;5.80;76.10;;;;;;4148337;28;20061;-88
2023/01/15 00:45:21;;;;;;;24.08;2.97;;;5.80;76.00;;;;;;4130107;28;20030;-88
2023/01/15 00:47:24;;;;;;;20.70;2.97;;;5.80;76.10;;;;;;4115552;28;20083;-88
2023/01/15 00:49:25;;;;;;;21.38;2.78;;;5.90;76.20;;;;;;4134332;28;20040;-87
2023/01/15 00:51:26;;;;;;;16.40;2.55;;;5.80;76.20;;;;;;4133322;28;20225;-88
2023/01/15 00:53:26;;;;;;;16.25;2.28;;;5.80;76.20;;;;;;4130158;28;20089;-88
2023/01/15 00:55:27;;;;;;;25.33;3.30;;;5.80;76.30;;;;;;4148482;28;20496;-87
2023/01/15 00:57:29;;;;;;;29.92;2.95;;;5.80;76.30;;;;;;4111600;28;20518;-87
2023/01/15 00:59:49;;;;;;;18.90;2.15;;;5.80;76.40;;;;;;4152300;28;20032;-87
2023/01/15 01:02:10;;;;;;;16.40;2.00;;;5.80;76.40;;;;;;4153786;28;20038;-88
2023/01/15 01:04:31;;;;;;;17.10;2.35;;;5.80;76.50;;;;;;4135498;28;20084;-87
2023/01/15 01:06:51;;;;;;;21.65;2.72;;;5.80;76.50;;;;;;4151733;28;20075;-88
2023/01/15 01:09:14;;;;;;;22.55;2.47;;;5.80;76.60;;;;;;4151397;28;20069;-87
2023/01/15 01:11:36;;;;;;;26.05;2.67;;;5.80;76.60;;;;;;4151835;28;20032;-87
2023/01/15 01:13:56;;;;;;;20.88;2.53;;;5.80;76.70;;;;;;4135881;28;20033;-88
2023/01/15 01:15:57;;;;;;;20.23;2.95;;;5.80;76.70;;;;;;4123070;28;20045;-87
2023/01/15 01:17:58;;;;;;;19.10;2.90;;;5.80;76.80;;;;;;4125141;28;20034;-87
2023/01/15 01:19:59;;;;;;;26.50;2.55;;;5.80;76.80;;;;;;4132425;28;20673;-86
2023/01/15 01:22:00;;;;;;;27.42;2.95;;;5.80;76.80;;;;;;4115326;28;20022;-86
2023/01/15 01:24:01;;;;;;;21.70;2.97;;;5.90;76.90;;;;;;4115530;28;20808;-88
2023/01/15 01:26:03;;;;;;;26.90;2.58;;;5.80;76.80;;;;;;4134829;28;20112;-87
2023/01/15 01:28:23;;;;;;;17.52;2.28;;;5.80;76.70;;;;;;4168199;28;20048;-87
2023/01/15 01:30:44;;;;;;;27.98;3.83;;;5.80;76.70;;;;;;4154864;28;20037;-87
2023/01/15 01:32:45;;;;;;;25.60;3.17;;;5.80;76.60;;;;;;4151324;28;20025;-87
2023/01/15 01:34:46;;;;;;;20.50;2.65;;;5.80;76.40;;;;;;4136388;28;20029;-87
2023/01/15 01:36:46;;;;;;;20.42;2.83;;;5.80;76.40;;;;;;4128986;28;20040;-87
2023/01/15 01:39:17;;;;;;;28.35;2.80;;;5.80;76.40;;;;;;4140447;28;20047;-87
2023/01/15 01:41:37;;;;;;;15.60;2.78;;;5.80;76.20;;;;;;4124965;28;20513;-87
2023/01/15 01:44:06;;;;;;;23.70;2.60;;;5.90;76.30;;;;;;4149833;28;20103;-87
2023/01/15 01:46:34;;;;;;;18.95;2.63;;;5.80;76.20;;;;;;4150856;28;21076;-87
2023/01/15 01:49:01;;;;;;;19.45;1.95;;;5.80;76.10;;;;;;4136900;28;20952;-86
2023/01/15 01:51:49;;;;;;;14.38;1.88;;;5.80;76.00;;;;;;4135762;28;20158;-85
2023/01/15 01:54:14;;;;;;;16.33;2.25;;;5.80;76.00;;;;;;4143275;28;20037;-89
2023/01/15 01:56:17;;;;;;;14.13;2.20;;;5.80;75.80;;;;;;4132983;28;20176;-88
2023/01/15 01:58:20;;;;;;;17.88;2.08;;;5.90;75.70;;;;;;4145629;28;20095;-87
2023/01/15 02:00:22;;;;;;;17.50;1.75;;;5.80;75.60;;;;;;4135047;28;20748;-87
2023/01/15 02:02:23;;;;;;;22.05;2.55;;;5.80;75.30;;;;;;4133384;28;20033;-88
2023/01/15 02:04:27;;;;;;;13.80;1.90;;;5.80;75.30;;;;;;4151873;28;20029;-87
2023/01/15 02:06:29;;;;;;;23.25;2.58;;;5.80;75.10;;;;;;4115765;28;20026;-88
2023/01/15 02:08:31;;;;;;;19.88;2.42;;;5.80;75.30;;;;;;4130769;28;20035;-87
2023/01/15 02:10:32;;;;;;;14.25;2.13;;;5.80;75.20;;;;;;4151739;28;20030;-87
2023/01/15 02:13:27;;;;;;;27.42;2.35;;;5.80;75.20;;;;;;4151020;28;20037;-87
2023/01/15 02:15:59;;;;;;;15.02;2.08;;;5.80;75.20;;;;;;4146302;28;20033;-89
2023/01/15 02:18:24;;;;;;;21.42;2.63;;;5.80;75.00;;;;;;4131052;28;20034;-89
2023/01/15 02:20:27;;;;;;;33.17;3.55;;;5.80;75.30;;;;;;4154605;28;20053;-89
2023/01/15 02:22:56;;;;;;;18.58;2.08;;;5.90;75.50;;;;;;4134674;28;20029;-89
2023/01/15 02:25:23;;;;;;;23.75;2.47;;;5.80;75.60;;;;;;4134774;28;20059;-89
2023/01/15 02:27:27;;;;;;;18.25;1.98;;;5.80;75.70;;;;;;4130003;28;20502;-90
2023/01/15 02:29:49;;;;;;;18.30;2.60;;;5.80;75.80;;;;;;4138274;28;20434;-89
2023/01/15 02:31:51;;;;;;;19.50;2.58;;;5.80;75.90;;;;;;4120517;28;20038;-88
2023/01/15 02:34:02;;;;;;;16.83;2.10;;;5.70;75.80;;;;;;4135198;28;20494;-89
2023/01/15 02:36:06;;;;;;;20.92;2.53;;;5.70;75.90;;;;;;4154531;28;20168;-90
2023/01/15 02:38:34;;;;;;;24.02;3.22;;;5.70;75.90;;;;;;4133717;28;20068;-89
2023/01/15 02:40:58;;;;;;;26.45;2.47;;;5.80;75.90;;;;;;4152488;28;20441;-90
2023/01/15 02:42:59;;;;;;;30.83;3.15;;;5.80;76.00;;;;;;4154597;28;20479;-90
2023/01/15 02:45:02;;;;;;;30.85;3.10;;;5.80;76.20;;;;;;4124118;28;20072;-89
2023/01/15 02:47:06;;;;;;;21.92;2.45;;;5.70;76.30;;;;;;4134376;28;20029;-91
2023/01/15 02:49:27;;;;;;;31.60;2.92;;;5.70;76.30;;;;;;4154496;28;20509;-90
2023/01/15 02:51:55;;;;;;;17.45;2.72;;;5.70;76.40;;;;;;4140800;28;20521;-90
2023/01/15 02:54:17;;;;;;;27.15;3.17;;;5.70;76.40;;;;;;4140624;28;20042;-89
2023/01/15 02:56:40;;;;;;;26.45;2.97;;;5.80;76.60;;;;;;4153183;28;20547;-90
2023/01/15 02:59:06;;;;;;;10.85;2.28;;;5.90;76.40;;;;;;4140137;28;21750;-89
2023/01/15 03:01:35;;;;;;;16.80;1.98;;;5.80;76.20;;;;;;4138081;28;20576;-91
2023/01/15 03:04:32;;;;;;;21.55;2.75;;;5.70;75.90;;;;;;4139734;28;20604;-90
2023/01/15 03:06:59;;;;;;;26.48;2.75;;;5.70;75.80;;;;;;4136974;28;20494;-89
2023/01/15 03:09:20;;;;;;;15.45;2.65;;;5.80;75.90;;;;;;4150523;28;20041;-89
2023/01/15 03:11:48;;;;;;;23.27;2.47;;;5.70;75.70;;;;;;4147403;28;20475;-89
2023/01/15 03:14:27;;;;;;;21.02;2.75;;;5.80;75.70;;;;;;4134704;28;20026;-90
2023/01/15 03:16:38;;;;;;;18.25;2.50;;;5.70;75.60;;;;;;4147386;28;20025;-88
2023/01/15 03:18:49;;;;;;;25.75;2.42;;;5.70;75.70;;;;;;4132110;28;20026;-89
2023/01/15 03:20:55;;;;;;;22.70;3.13;;;5.60;75.30;;;;;;4129936;28;20497;-89
2023/01/15 03:23:00;;;;;;;24.05;2.92;;;5.70;75.60;;;;;;4151818;28;20032;-90
2023/01/15 03:25:12;;;;;;;19.25;2.67;;;5.60;76.30;;;;;;4116000;28;20504;-89
2023/01/15 03:27:14;;;;;;;25.13;3.53;;;5.60;75.60;;;;;;4148513;28;20099;-90
2023/01/15 03:29:15;;;;;;;28.48;2.70;;;5.60;75.70;;;;;;4133993;28;20513;-89
2023/01/15 03:31:16;;;;;;;24.80;3.22;;;5.70;75.80;;;;;;4146730;28;20086;-89
2023/01/15 03:33:17;;;;;;;23.17;2.95;;;5.70;75.80;;;;;;4149600;28;20084;-89
2023/01/15 03:35:43;;;;;;;23.20;2.97;;;5.60;75.80;;;;;;4150768;28;20036;-90
2023/01/15 03:37:44;;;;;;;25.60;3.15;;;5.70;75.80;;;;;;4133061;28;20041;-88
2023/01/15 03:39:44;;;;;;;18.38;3.33;;;5.70;75.90;;;;;;4113903;28;21343;-89
2023/01/15 03:42:11;;;;;;;27.63;3.30;;;5.70;75.90;;;;;;4145806;28;20029;-89
2023/01/15 03:44:26;;;;;;;21.35;2.88;;;5.70;75.90;;;;;;4091792;28;20038;-89
2023/01/15 03:47:02;;;;;;;22.55;3.30;;;5.70;76.10;;;;;;4136512;28;20088;-87
2023/01/15 03:49:27;;;;;;;22.58;2.92;;;5.70;75.90;;;;;;4099184;28;20082;-89
2023/01/15 03:51:43;;;;;;;15.52;2.42;;;5.70;76.00;;;;;;4132742;28;20061;-88
2023/01/15 03:53:54;;;;;;;21.50;2.47;;;5.70;75.90;;;;;;4129790;28;20034;-88
2023/01/15 03:56:05;;;;;;;15.13;2.70;;;5.70;75.90;;;;;;4131513;28;20022;-89
2023/01/15 03:58:15;;;;;;;24.80;2.80;;;5.70;76.00;;;;;;4133774;28;20085;-89
2023/01/15 04:00:28;;;;;;;23.45;2.35;;;5.70;76.10;;;;;;4133546;28;20033;-89
2023/01/15 04:02:29;;;;;;;27.13;2.53;;;5.70;76.20;;;;;;4133481;28;20034;-89
2023/01/15 04:04:32;;;;;;;24.45;2.83;;;5.70;76.20;;;;;;4146431;28;20108;-89
2023/01/15 04:06:35;;;;;;;27.73;2.88;;;5.70;76.10;;;;;;4150948;28;20029;-89
2023/01/15 04:08:39;;;;;;;29.27;3.67;;;5.70;76.10;;;;;;4129435;28;20521;-88
2023/01/15 04:10:59;;;;;;;12.55;2.38;;;5.70;76.20;;;;;;4134028;28;20030;-89
2023/01/15 04:12:59;;;;;;;20.17;2.85;;;5.70;76.10;;;;;;4134111;28;20034;-89
2023/01/15 04:15:00;;;;;;;22.00;2.42;;;5.70;76.20;;;;;;4118377;28;20022;-88
2023/01/15 04:17:01;;;;;;;24.98;2.85;;;5.70;76.30;;;;;;4138326;28;20026;-89
2023/01/15 04:19:02;;;;;;;24.75;2.85;;;5.80;76.40;;;;;;4131623;28;20038;-88
2023/01/15 04:21:02;;;;;;;19.27;2.47;;;5.60;76.30;;;;;;4136785;28;20057;-88
2023/01/15 04:23:03;;;;;;;20.80;2.47;;;5.70;76.30;;;;;;4149718;28;20106;-88
2023/01/15 04:25:05;;;;;;;25.58;3.00;;;5.70;76.40;;;;;;4133328;28;20057;-89
2023/01/15 04:27:06;;;;;;;19.02;3.08;;;5.70;76.40;;;;;;4131232;28;20065;-91
2023/01/15 04:29:07;;;;;;;26.20;2.55;;;5.70;76.20;;;;;;4117182;28;20034;-89
2023/01/15 04:31:07;;;;;;;18.33;2.25;;;5.70;76.40;;;;;;4137821;28;20041;-88
2023/01/15 04:33:08;;;;;;;34.40;3.33;;;5.70;76.50;;;;;;4151927;28;20030;-88
2023/01/15 04:35:09;;;;;;;21.10;2.38;;;5.70;76.50;;;;;;4134906;28;20026;-90
2023/01/15 04:37:09;;;;;;;20.60;2.60;;;5.70;76.70;;;;;;4118602;28;20530;-89
2023/01/15 04:39:10;;;;;;;21.23;2.78;;;5.70;76.70;;;;;;4138432;28;20692;-90
2023/01/15 04:45:49;;;;;;;27.95;3.22;;;5.70;76.70;;;;;;4147817;28;20037;-89
2023/01/15 04:47:50;;;;;;;22.63;2.78;;;5.70;76.70;;;;;;4137980;28;20074;-88
2023/01/15 04:49:50;;;;;;;15.40;2.72;;;5.70;76.70;;;;;;4134353;28;20254;-90
2023/01/15 04:51:51;;;;;;;20.70;2.30;;;5.70;76.70;;;;;;4135183;28;20033;-89
2023/01/15 04:53:52;;;;;;;16.73;2.63;;;5.70;76.70;;;;;;4135734;28;20085;-90
2023/01/15 04:56:03;;;;;;;16.08;2.40;;;5.70;76.70;;;;;;4130443;28;20127;-89
2023/01/15 04:58:03;;;;;;;18.02;2.78;;;5.70;76.70;;;;;;4138778;28;20096;-90
2023/01/15 05:00:04;;;;;;;27.27;2.67;;;5.70;76.70;;;;;;4139006;28;20041;-89
2023/01/15 05:02:05;;;;;;;24.02;2.83;;;5.70;76.70;;;;;;4157155;28;20030;-89
2023/01/15 05:04:06;;;;;;;23.65;3.08;;;5.80;76.70;;;;;;4125085;28;20064;-89
2023/01/15 05:06:07;;;;;;;18.50;2.78;;;5.70;76.70;;;;;;4139039;28;20088;-89
2023/01/15 05:08:08;;;;;;;24.95;2.65;;;5.70;76.70;;;;;;4117722;28;20034;-90
2023/01/15 05:10:10;;;;;;;15.05;2.65;;;5.70;76.70;;;;;;4132758;28;20697;-90
2023/01/15 05:12:11;;;;;;;23.95;2.70;;;5.80;76.80;;;;;;4132096;28;20549;-90
2023/01/15 05:14:32;;;;;;;25.23;2.67;;;5.80;76.80;;;;;;4136707;28;20045;-90
2023/01/15 05:16:53;;;;;;;21.70;2.42;;;5.80;76.80;;;;;;4137473;28;20052;-90
2023/01/15 05:19:13;;;;;;;27.40;2.60;;;5.80;76.80;;;;;;4139784;28;20030;-90
2023/01/15 05:21:39;;;;;;;20.23;2.15;;;5.80;76.60;;;;;;4157594;28;20107;-89
2023/01/15 05:24:02;;;;;;;17.45;1.90;;;5.70;77.20;;;;;;4136659;28;20030;-89
2023/01/15 05:26:24;;;;;;;14.57;2.25;;;5.70;76.30;;;;;;4139944;28;20034;-90
2023/01/15 05:28:45;;;;;;;20.27;1.95;;;5.70;76.30;;;;;;4137707;28;20107;-90
2023/01/15 05:31:08;;;;;;;20.63;2.55;;;5.70;76.30;;;;;;4156412;28;20068;-89
2023/01/15 05:33:28;;;;;;;16.93;2.23;;;5.70;76.10;;;;;;4157216;28;20044;-90
2023/01/15 05:35:49;;;;;;;14.43;2.30;;;5.70;76.10;;;;;;4140313;28;20030;-89
2023/01/15 05:38:09;;;;;;;16.70;2.50;;;5.70;76.00;;;;;;4133852;28;20124;-89
2023/01/15 05:40:11;;;;;;;15.32;2.60;;;5.60;75.90;;;;;;4156934;28;20038;-89
2023/01/15 05:42:11;;;;;;;12.48;2.60;;;5.60;75.90;;;;;;4122156;28;20030;-89
2023/01/15 05:44:13;;;;;;;25.33;2.58;;;5.60;75.80;;;;;;4137797;28;20046;-90
2023/01/15 05:46:13;;;;;;;20.75;2.65;;;5.60;75.80;;;;;;4119864;28;20035;-90
2023/01/15 05:48:14;;;;;;;17.50;2.63;;;5.60;75.90;;;;;;4154596;28;20079;-90
2023/01/15 05:50:15;;;;;;;21.35;2.75;;;5.60;75.90;;;;;;4134328;28;20026;-89
2023/01/15 05:52:15;;;;;;;25.10;2.28;;;5.50;75.80;;;;;;4134983;28;20707;-89
2023/01/15 05:54:20;;;;;;;17.05;2.70;;;5.50;75.90;;;;;;4138153;28;20034;-90
2023/01/15 05:56:20;;;;;;;19.35;2.40;;;5.50;76.00;;;;;;4139333;28;20053;-90
2023/01/15 05:58:21;;;;;;;23.13;3.70;;;5.50;76.00;;;;;;4152673;28;20378;-90
2023/01/15 06:00:22;;;;;;;24.85;2.53;;;5.50;76.00;;;;;;4119344;28;20057;-89
2023/01/15 06:02:23;;;;;;;29.55;3.20;;;5.50;76.10;;;;;;4134164;28;20823;-90
2023/01/15 06:04:24;;;;;;;16.55;2.05;;;5.50;76.00;;;;;;4153323;28;20156;-89
2023/01/15 06:06:25;;;;;;;22.95;2.38;;;5.50;76.00;;;;;;4134644;28;20033;-89
2023/01/15 06:08:26;;;;;;;21.92;2.00;;;5.50;76.10;;;;;;4131473;28;20029;-89
2023/01/15 06:10:26;;;;;;;22.85;2.75;;;5.50;76.10;;;;;;4133708;28;20525;-89
2023/01/15 06:12:27;;;;;;;23.80;3.03;;;5.50;76.00;;;;;;4155072;28;20060;-88
2023/01/15 06:14:28;;;;;;;13.43;2.40;;;5.50;76.00;;;;;;4153797;28;20553;-88
2023/01/15 06:16:28;;;;;;;17.30;2.40;;;5.50;76.00;;;;;;4155692;28;20024;-88
2023/01/15 06:18:29;;;;;;;28.55;2.42;;;5.50;76.00;;;;;;4152272;28;20034;-89
2023/01/15 06:20:30;;;;;;;14.18;2.13;;;5.50;76.10;;;;;;4154674;28;20567;-89
2023/01/15 06:22:30;;;;;;;20.58;2.55;;;5.50;76.10;;;;;;4150979;28;20401;-90
2023/01/15 06:24:31;;;;;;;28.58;3.33;;;5.40;76.00;;;;;;4138371;28;20056;-89
2023/01/15 06:26:32;;;;;;;22.50;2.35;;;5.50;76.10;;;;;;4138308;28;20026;-89
2023/01/15 06:28:33;;;;;;;18.52;2.30;;;5.50;76.20;;;;;;4134516;28;20033;-87
2023/01/15 06:30:36;;;;;;;28.70;2.80;;;5.50;76.20;;;;;;4134763;28;20026;-90
2023/01/15 06:32:36;;;;;;;20.50;3.22;;;5.50;76.20;;;;;;4134599;28;20582;-90
2023/01/15 06:34:37;;;;;;;29.38;3.35;;;5.50;76.30;;;;;;4136623;28;20018;-89
2023/01/15 06:36:38;;;;;;;28.67;3.45;;;5.50;76.30;;;;;;4133807;28;20518;-89
2023/01/15 06:38:39;;;;;;;24.00;2.90;;;5.50;76.20;;;;;;4138566;28;20115;-89
2023/01/15 06:40:40;;;;;;;20.92;3.03;;;5.50;76.20;;;;;;4135581;28;20022;-89
2023/01/15 06:47:20;;;;;;;22.27;2.72;;;5.50;76.10;;;;;;4131075;28;20018;-89
2023/01/15 06:49:21;;;;;;;27.35;2.50;;;5.60;76.20;;;;;;4153727;28;20037;-88
2023/01/15 06:51:21;;;;;;;25.48;2.95;;;5.50;76.10;;;;;;4126627;28;20065;-90
2023/01/15 06:53:22;;;;;;;20.23;3.13;;;5.50;76.00;;;;;;4135291;28;20546;-89
2023/01/15 06:55:23;;;;;;;25.90;3.50;;;5.50;76.00;;;;;;4155082;28;20156;-89
2023/01/15 06:57:24;;;;;;;24.02;3.20;;;5.50;76.00;;;;;;4114280;28;20494;-91
2023/01/15 06:59:24;;;;;;;14.15;2.35;;;5.60;76.10;;;;;;4135938;28;20033;-89
2023/01/15 07:01:29;;;;;;;28.73;4.13;;;5.60;76.00;;;;;;4120201;28;20954;-91
2023/01/15 07:03:30;;;;;;;22.50;3.63;;;5.60;75.80;;;;;;4155612;28;20053;-90
2023/01/15 07:05:30;;;;;;;19.33;2.53;;;5.50;75.80;;;;;;4133925;28;20068;-90
2023/01/15 07:07:31;;;;;;;26.90;3.25;;;5.70;76.00;;;;;;4121849;28;20026;-89
2023/01/15 07:09:32;;;;;;;27.15;3.60;;;5.60;75.80;;;;;;4137024;28;20029;-90
2023/01/15 07:11:32;;;;;;;29.40;3.10;;;5.60;75.70;;;;;;4156165;28;20037;-90
2023/01/15 07:13:33;;;;;;;24.38;2.92;;;5.60;75.60;;;;;;4121447;28;20031;-89
2023/01/15 07:15:36;;;;;;;25.65;3.45;;;5.60;75.70;;;;;;4137412;28;20180;-91
2023/01/15 07:17:36;;;;;;;22.10;3.03;;;5.60;75.50;;;;;;4119878;28;20045;-89
2023/01/15 07:19:37;;;;;;;17.73;2.78;;;5.50;75.30;;;;;;4133499;28;20038;-92
2023/01/15 07:21:39;;;;;;;27.55;3.03;;;5.60;75.50;;;;;;4135178;28;20080;-91
2023/01/15 07:23:39;;;;;;;30.50;3.67;;;5.60;75.20;;;;;;4136666;28;20145;-89
2023/01/15 07:25:40;;;;;;;21.63;3.00;;;5.60;75.00;;;;;;4134275;28;20022;-91
2023/01/15 07:27:41;;;;;;;20.92;2.70;;;5.60;74.90;;;;;;4151398;28;20524;-90
2023/01/15 07:29:41;;;;;;;28.35;3.13;;;5.60;74.80;;;;;;4125755;28;20030;-90
2023/01/15 07:31:42;;;;;;;20.85;3.15;;;5.60;74.70;;;;;;4154075;28;20032;-89
2023/01/15 07:33:43;;;;;;;21.00;2.53;;;5.60;74.70;;;;;;4155735;28;22014;-90
2023/01/15 07:35:43;;;;;;;26.13;3.38;;;5.60;74.70;;;;;;4136811;28;20030;-90
2023/01/15 07:37:51;;;;;;;19.85;3.22;;;5.60;74.40;;;;;;4119601;28;20063;-90
2023/01/15 07:39:52;;;;;;;31.55;3.65;;;5.60;74.60;;;;;;4119794;28;20085;-91
2023/01/15 07:51:09;;;;;;;20.42;3.03;;;5.60;74.60;;;;;;4135905;28;20418;-91
2023/01/15 07:53:10;;;;;;;19.88;3.00;;;5.60;74.40;;;;;;4136789;28;20033;-90
2023/01/15 07:55:13;;;;;;;23.88;2.85;;;5.50;74.10;;;;;;4168645;28;20041;-90
2023/01/15 07:57:19;;;;;;;22.38;3.33;;;5.50;74.00;;;;;;4134651;28;20097;-90
2023/01/15 07:59:19;;;;;;;21.48;3.00;;;5.50;74.10;;;;;;4145353;28;20056;-90
2023/01/15 08:01:20;;;;;;;24.27;3.47;;;5.50;74.00;;;;;;4128645;28;20029;-90
2023/01/15 08:03:21;;;;;;;25.50;3.33;;;5.60;74.10;;;;;;4134317;28;20072;-90
2023/01/15 08:05:22;;;;;;;21.90;3.08;;;5.50;73.60;;;;;;4154226;28;20018;-90
2023/01/15 08:07:23;;;;;;;28.88;2.67;;;5.70;73.70;;;;;;4118831;28;20034;-90
2023/01/15 08:09:24;;;;;;;23.92;2.38;;;5.60;73.50;;;;;;4127298;28;20429;-89
2023/01/15 08:16:04;;;;;;;17.25;2.75;;;5.50;73.00;;;;;;4134214;28;20104;-90
2023/01/15 08:18:05;;;;;;;15.82;2.10;;;5.50;72.70;;;;;;4128863;28;20034;-90
2023/01/15 08:20:13;;;;;;;16.70;2.50;;;5.50;72.60;;;;;;4134855;28;20707;-89
2023/01/15 08:22:13;;;;;;;17.00;2.67;;;5.50;72.50;;;;;;4138344;28;20425;-91
2023/01/15 08:24:14;;;;;;;21.42;2.33;;;5.50;72.60;;;;;;4134422;28;20025;-90
2023/01/15 08:26:15;;;;;;;19.25;2.72;;;5.50;72.40;;;;;;4138383;28;20122;-89
2023/01/15 08:28:15;;;;;;;26.80;3.25;;;5.60;72.50;;;;;;4148414;28;20033;-90
2023/01/15 08:30:21;;;;;;;26.27;3.08;;;5.60;71.80;;;;;;4150288;28;20099;-90
2023/01/15 08:32:22;;;;;;;28.17;3.13;;;5.60;71.80;;;;;;4115753;28;20553;-90
2023/01/15 08:34:23;;;;;;;20.35;2.15;;;5.60;72.30;;;;;;4129766;28;20038;-89
2023/01/15 08:36:25;;;;;;;13.40;2.13;;;5.50;71.70;;;;;;4148851;28;20909;-90
2023/01/15 08:38:26;;;;;;;27.73;2.50;;;5.50;71.80;;;;;;4114348;28;20525;-90
2023/01/15 08:40:27;;;;;;;20.52;3.33;;;5.60;71.80;;;;;;4116653;28;20022;-90
2023/01/15 08:42:27;;;;;;;20.52;2.75;;;5.60;71.60;;;;;;4132293;28;20425;-89
2023/01/15 08:44:28;;;;;;;14.60;2.42;;;5.70;71.40;;;;;;4134979;28;20030;-90
2023/01/15 08:46:29;;;;;;;31.10;3.10;;;5.60;71.30;;;;;;4119628;28;20022;-88
2023/01/15 08:48:30;;;;;;;19.92;2.50;;;5.60;71.10;;;;;;4137817;28;20117;-89
2023/01/15 08:50:31;;;;;;;16.23;2.10;;;5.60;70.80;;;;;;4132484;28;20030;-88
2023/01/15 08:52:32;;;;;;;14.95;2.45;;;5.60;70.70;;;;;;4124470;28;20068;-89
2023/01/15 08:54:32;;;;;;;14.52;2.40;;;5.60;70.60;;;;;;4121881;28;20117;-89
2023/01/15 08:56:33;;;;;;;13.70;2.13;;;5.70;70.30;;;;;;4131115;28;20192;-88
2023/01/15 08:58:34;;;;;;;22.33;3.08;;;5.60;70.30;;;;;;4131706;28;20711;-90
2023/01/15 09:00:34;;;;;;;18.25;2.70;;;5.60;69.60;;;;;;4135429;28;20037;-90
2023/01/15 09:02:35;;;;;;;16.98;2.72;;;5.70;70.20;;;;;;4130452;28;20064;-89
2023/01/15 09:04:36;;;;;;;17.95;1.95;;;5.60;70.00;;;;;;4116469;28;20026;-90
2023/01/15 09:06:36;;;;;;;19.15;2.35;;;5.60;70.10;;;;;;4149757;28;20033;-90
2023/01/15 09:08:37;;;;;;;18.95;2.42;;;5.60;70.10;;;;;;4137799;28;20552;-91
2023/01/15 09:10:38;;;;;;;15.20;2.10;;;5.70;69.50;;;;;;4129945;28;20026;-90
2023/01/15 09:12:38;;;;;;;15.05;2.42;;;5.60;69.40;;;;;;4114866;28;20153;-89
2023/01/15 09:14:39;;;;;;;20.13;2.55;;;5.60;69.30;;;;;;4127065;28;20030;-88
2023/01/15 09:16:40;;;;;;;16.05;2.28;;;5.60;69.60;;;;;;4116286;28;20116;-89
2023/01/15 09:18:40;;;;;;;18.63;3.08;;;5.60;69.40;;;;;;4151419;28;20099;-90
2023/01/15 09:20:41;;;;;;;20.52;3.13;;;5.70;69.40;;;;;;4132401;28;20026;-90
2023/01/15 09:22:42;;;;;;;24.35;2.58;;;5.60;69.10;;;;;;4126586;28;20022;-89
2023/01/15 09:24:42;;;;;;;16.17;2.08;;;5.60;68.90;;;;;;4136576;28;20044;-90
2023/01/15 09:26:43;;;;;;;16.70;2.53;;;5.70;69.50;;;;;;4132212;28;20022;-88
2023/01/15 09:28:44;;;;;;;14.70;2.40;;;5.60;68.20;;;;;;4144510;28;20108;-87
2023/01/15 09:30:45;;;;;;;17.45;2.38;;;5.70;68.40;;;;;;4109065;28;20030;-89
2023/01/15 09:32:45;;;;;;;16.13;2.30;;;5.70;68.60;;;;;;4151748;28;20029;-89
2023/01/15 09:34:46;;;;;;;18.67;2.50;;;5.70;68.30;;;;;;4149603;28;20029;-89
2023/01/15 09:36:47;;;;;;;17.33;2.17;;;5.70;68.00;;;;;;4131889;28;20415;-89
2023/01/15 09:38:48;;;;;;;20.50;2.80;;;5.70;68.20;;;;;;4125346;28;20116;-89
2023/01/15 09:40:55;;;;;;;16.33;2.53;;;5.70;68.30;;;;;;4130619;28;20033;-87
2023/01/15 09:43:07;;;;;;;24.65;2.72;;;5.70;67.80;;;;;;4115531;28;20029;-87
2023/01/15 09:45:17;;;;;;;14.13;2.60;;;5.70;68.10;;;;;;4150275;28;20548;-87
2023/01/15 09:47:40;;;;;;;17.10;1.90;;;5.70;68.50;;;;;;4133785;28;20037;-89
2023/01/15 09:50:08;;;;;;;16.70;2.03;;;5.70;67.50;;;;;;4147452;28;20020;-86
2023/01/15 09:52:48;;;;;;;19.55;2.03;;;5.70;67.20;;;;;;4137451;28;20046;-86
2023/01/15 09:55:08;;;;;;;23.27;3.17;;;5.70;67.20;;;;;;4101086;28;20039;-86
2023/01/15 09:57:12;;;;;;;17.25;2.15;;;5.70;68.10;;;;;;4080867;28;20034;-85
2023/01/15 09:59:38;;;;;;;13.43;2.20;;;5.70;67.50;;;;;;4094730;28;20571;-85
2023/01/15 10:01:40;;;;;;;14.05;2.05;;;5.70;67.60;;;;;;4159460;28;20057;-87
2023/01/15 10:03:50;;;;;;;19.77;2.35;;;5.70;67.60;;;;;;4136037;28;20150;-86
2023/01/15 10:06:02;;;;;;;14.02;2.30;;;5.80;67.60;;;;;;4128810;28;20023;-87
2023/01/15 10:08:18;;;;;;;18.55;2.70;;;5.80;67.50;;;;;;4155330;28;20576;-87
2023/01/15 10:10:23;;;;;;;22.42;2.97;;;5.70;67.00;;;;;;4152500;28;20124;-86
2023/01/15 10:12:38;;;;;;;18.23;2.17;;;5.80;67.10;;;;;;4149917;28;20065;-86
2023/01/15 10:14:57;;;;;;;15.50;2.88;;;5.80;67.50;;;;;;4133209;28;20021;-87
2023/01/15 10:16:57;;;;;;;18.33;2.60;;;5.80;67.20;;;;;;4150306;28;20061;-89
2023/01/15 10:19:01;;;;;;;15.38;2.25;;;5.80;67.20;;;;;;4148668;28;20124;-86
2023/01/15 10:21:19;;;;;;;22.85;2.35;;;5.90;67.20;;;;;;4143117;28;20101;-86
2023/01/15 10:23:39;;;;;;;22.25;2.20;;;5.80;66.00;;;;;;4122318;28;20108;-87
2023/01/15 10:25:50;;;;;;;12.80;2.05;;;5.90;66.20;;;;;;4116690;28;20029;-84
2023/01/15 10:27:51;;;;;;;10.38;1.70;;;5.90;66.40;;;;;;4119938;28;20026;-87
2023/01/15 10:30:13;;;;;;;15.63;2.17;;;5.80;65.80;;;;;;4113496;28;20037;-89
2023/01/15 10:32:40;;;;;;;22.17;2.13;;;5.90;65.80;;;;;;4151148;28;20525;-89
2023/01/15 10:35:20;;;;;;;18.90;2.45;;;5.90;65.60;;;;;;4126235;28;20579;-88
2023/01/15 10:37:29;;;;;;;17.02;2.00;;;5.90;64.20;;;;;;4144284;28;20637;-89
2023/01/15 10:39:52;;;;;;;11.43;1.95;;;5.90;64.60;;;;;;4142283;28;20049;-88
2023/01/15 10:42:41;;;;;;;12.93;1.80;;;5.90;64.20;;;;;;4150997;28;20044;-88
2023/01/15 10:44:59;;;;;;;18.98;2.10;;;5.90;64.50;;;;;;4095654;28;20031;-88
2023/01/15 10:47:01;;;;;;;17.42;2.03;;;6.00;64.70;;;;;;4105568;28;20057;-88
2023/01/15 10:49:12;;;;;;;14.10;2.25;;;5.90;64.60;;;;;;4130218;28;20026;-89
2023/01/15 10:51:25;;;;;;;18.55;1.83;;;5.90;64.40;;;;;;4129483;28;20110;-89
2023/01/15 10:53:39;;;;;;;9.50;1.65;;;5.90;65.00;;;;;;4123333;28;20040;-90
2023/01/15 10:56:08;;;;;;;12.60;1.40;;;5.90;65.20;;;;;;4132515;28;20037;-89
2023/01/15 10:58:38;;;;;;;11.00;1.60;;;5.80;65.40;;;;;;4130507;28;20048;-88
2023/01/15 11:01:05;;;;;;;9.20;1.65;;;5.70;65.60;;;;;;4132952;28;20034;-89
2023/01/15 11:03:36;;;;;;;13.05;1.80;;;5.60;66.00;;;;;;4146678;28;20021;-90
2023/01/15 11:05:57;;;;;;;13.55;1.95;;;5.60;66.40;;;;;;4140356;28;20045;-88
2023/01/15 11:08:29;;;;;;;10.77;1.63;;;5.50;66.90;;;;;;4147269;28;20022;-87
2023/01/15 11:10:50;;;;;;;18.75;1.70;;;5.40;66.90;;;;;;4155545;28;20045;-88
2023/01/15 11:20:53;;;;;;;13.35;1.50;;;5.30;67.70;;;;;;4126010;28;20029;-88
2023/01/15 11:23:09;;;;;;;16.30;2.10;;;5.30;68.10;;;;;;4127291;28;20056;-88
2023/01/15 11:25:10;;;;;;;15.07;2.40;;;5.30;68.50;;;;;;4132099;28;20041;-89
2023/01/15 11:27:15;;;;;;;10.15;1.80;;;5.30;68.50;;;;;;4148161;28;20485;-88
2023/01/15 11:29:36;;;;;;;20.23;2.53;;;5.30;68.50;;;;;;4131866;28;20032;-88
2023/01/15 11:31:38;;;;;;;22.23;2.50;;;5.40;68.50;;;;;;4130563;28;20060;-88
2023/01/15 11:33:42;;;;;;;15.02;2.10;;;5.30;68.30;;;;;;4131234;28;20041;-87
2023/01/15 11:35:50;;;;;;;15.18;2.08;;;5.40;68.30;;;;;;4130606;28;20092;-86
2023/01/15 11:38:27;;;;;;;16.52;2.75;;;5.40;68.10;;;;;;4126329;28;20113;-89
2023/01/15 11:40:28;;;;;;;21.52;2.97;;;5.40;67.90;;;;;;4087820;28;20168;-89
2023/01/15 11:51:59;;;;;;;13.93;1.70;;;5.40;66.20;;;;;;4146219;28;20128;-90
2023/01/15 11:54:07;;;;;;;14.95;2.10;;;5.50;66.00;;;;;;4150234;28;20198;-89
2023/01/15 11:56:14;;;;;;;18.27;2.58;;;5.50;66.50;;;;;;4150249;28;20116;-89